createdAt,value
2018-12-13T00:01:19.784Z,0.50
2018-12-13T00:03:47.294Z,0.50
2018-12-13T00:06:14.810Z,0.50
2018-12-13T00:08:42.332Z,0.50
2018-12-13T00:11:10.012Z,0.50
2018-12-13T00:13:37.524Z,0.60
2018-12-13T00:16:05.042Z,0.50
2018-12-13T00:18:32.567Z,0.50
2018-12-13T00:21:00.087Z,0.50
2018-12-13T00:23:27.592Z,0.50
2018-12-13T00:25:55.201Z,0.50
2018-12-13T00:28:22.716Z,0.50
2018-12-13T00:30:50.238Z,0.50
2018-12-13T00:33:17.759Z,0.50
2018-12-13T00:35:45.282Z,0.50
2018-12-13T00:38:12.806Z,0.50
2018-12-13T00:40:40.323Z,0.40
2018-12-13T00:43:07.860Z,0.40
2018-12-13T00:45:35.375Z,0.40
2018-12-13T00:48:02.880Z,0.30
2018-12-13T00:50:30.393Z,0.30
2018-12-13T00:52:57.984Z,0.30
2018-12-13T00:55:25.565Z,0.30
2018-12-13T00:57:53.173Z,0.30
2018-12-13T01:00:20.691Z,0.30
2018-12-13T01:02:48.225Z,0.30
2018-12-13T01:05:15.747Z,0.30
2018-12-13T01:07:43.276Z,0.40
2018-12-13T01:10:10.872Z,0.40
2018-12-13T01:12:38.387Z,0.40
2018-12-13T01:15:05.902Z,0.40
2018-12-13T01:17:33.427Z,0.40
2018-12-13T01:20:00.949Z,0.40
2018-12-13T01:22:28.482Z,0.30
2018-12-13T01:24:55.986Z,0.30
2018-12-13T01:27:23.498Z,0.20
2018-12-13T01:29:51.046Z,0.10
2018-12-13T01:32:18.559Z,0.10
2018-12-13T01:34:46.075Z,0.00
2018-12-13T01:37:13.586Z,0.00
2018-12-13T01:39:41.169Z,-0.10
2018-12-13T01:42:08.684Z,0.00
2018-12-13T01:44:36.197Z,0.00
2018-12-13T01:47:03.724Z,0.10
2018-12-13T01:49:31.232Z,0.10
2018-12-13T01:51:58.762Z,0.10
2018-12-13T01:54:26.305Z,0.10
2018-12-13T01:56:53.827Z,0.10
2018-12-13T01:59:21.360Z,0.10
2018-12-13T02:01:48.871Z,0.10
2018-12-13T02:04:16.395Z,0.10
2018-12-13T02:06:43.921Z,0.00
2018-12-13T02:09:11.500Z,0.00
2018-12-13T02:11:39.162Z,0.00
2018-12-13T02:14:06.687Z,0.00
2018-12-13T02:16:34.207Z,0.00
2018-12-13T02:19:01.752Z,0.00
2018-12-13T02:21:29.279Z,0.00
2018-12-13T02:23:56.829Z,0.00
2018-12-13T02:26:24.341Z,0.00
2018-12-13T02:28:51.851Z,0.00
2018-12-13T02:31:19.511Z,-0.10
2018-12-13T02:33:47.062Z,-0.10
2018-12-13T02:36:14.594Z,0.00
2018-12-13T02:38:42.168Z,0.00
2018-12-13T02:41:09.707Z,-0.10
2018-12-13T02:43:37.227Z,-0.10
2018-12-13T02:46:04.750Z,-0.10
2018-12-13T02:48:32.267Z,-0.10
2018-12-13T02:50:59.783Z,-0.10
2018-12-13T02:53:27.313Z,0.00
2018-12-13T02:55:54.837Z,0.00
2018-12-13T02:58:22.515Z,0.00
2018-12-13T03:00:50.136Z,0.00
2018-12-13T03:03:17.670Z,0.00
2018-12-13T03:05:45.183Z,0.00
2018-12-13T03:08:12.716Z,0.00
2018-12-13T03:10:40.238Z,0.00
2018-12-13T03:13:07.836Z,0.00
2018-12-13T03:15:35.375Z,-0.10
2018-12-13T03:18:02.945Z,-0.10
2018-12-13T03:20:30.488Z,-0.10
2018-12-13T03:22:58.032Z,-0.10
2018-12-13T03:25:25.551Z,-0.10
2018-12-13T03:27:53.094Z,-0.10
2018-12-13T03:30:20.616Z,-0.10
2018-12-13T03:32:48.133Z,-0.10
2018-12-13T03:35:15.662Z,-0.10
2018-12-13T03:37:43.197Z,-0.10
2018-12-13T03:40:10.729Z,-0.10
2018-12-13T03:42:38.333Z,-0.10
2018-12-13T03:45:05.990Z,-0.10
2018-12-13T03:47:33.518Z,-0.10
2018-12-13T03:50:01.051Z,-0.10
2018-12-13T03:52:28.572Z,-0.10
2018-12-13T03:54:56.082Z,-0.10
2018-12-13T03:57:23.703Z,-0.10
2018-12-13T03:59:51.232Z,-0.20
2018-12-13T04:02:18.777Z,-0.20
2018-12-13T04:04:46.317Z,-0.30
2018-12-13T04:07:13.845Z,-0.20
2018-12-13T04:09:41.421Z,-0.30
2018-12-13T04:12:08.954Z,-0.30
2018-12-13T04:14:36.523Z,-0.30
2018-12-13T04:17:04.051Z,-0.30
2018-12-13T04:19:31.576Z,-0.30
2018-12-13T04:22:00.970Z,-0.30
2018-12-13T04:24:29.243Z,-0.30
2018-12-13T04:26:56.878Z,-0.30
2018-12-13T04:29:24.397Z,-0.40
2018-12-13T04:31:51.931Z,-0.40
2018-12-13T04:34:19.473Z,-0.40
2018-12-13T04:36:47.115Z,-0.40
2018-12-13T04:39:14.629Z,-0.40
2018-12-13T04:41:42.239Z,-0.40
2018-12-13T04:44:09.781Z,-0.40
2018-12-13T04:46:37.335Z,-0.40
2018-12-13T04:49:04.879Z,-0.40
2018-12-13T04:51:32.413Z,-0.40
2018-12-13T04:53:59.938Z,-0.40
2018-12-13T04:56:27.461Z,-0.40
2018-12-13T04:58:55.072Z,-0.40
2018-12-13T05:01:22.667Z,-0.30
2018-12-13T05:03:50.191Z,-0.30
2018-12-13T05:06:17.719Z,-0.30
2018-12-13T05:08:45.239Z,-0.30
2018-12-13T05:11:12.771Z,-0.30
2018-12-13T05:13:40.309Z,-0.30
2018-12-13T05:16:07.874Z,-0.30
2018-12-13T05:18:35.389Z,-0.30
2018-12-13T05:21:02.978Z,-0.30
2018-12-13T05:23:30.523Z,-0.30
2018-12-13T05:25:58.048Z,-0.30
2018-12-13T05:28:25.560Z,-0.30
2018-12-13T05:30:53.091Z,-0.30
2018-12-13T05:33:20.629Z,-0.30
2018-12-13T05:35:48.166Z,-0.30
2018-12-13T05:38:15.695Z,-0.30
2018-12-13T05:40:43.258Z,-0.30
2018-12-13T05:43:10.791Z,-0.30
2018-12-13T05:45:38.311Z,-0.30
2018-12-13T05:48:05.886Z,-0.20
2018-12-13T05:50:33.437Z,-0.10
2018-12-13T05:53:00.957Z,0.00
2018-12-13T05:55:28.484Z,0.10
2018-12-13T05:57:56.050Z,0.10
2018-12-13T06:00:23.581Z,0.10
2018-12-13T06:02:51.175Z,0.10
2018-12-13T06:05:18.719Z,0.10
2018-12-13T06:07:46.227Z,0.10
2018-12-13T06:10:13.767Z,0.10
2018-12-13T06:12:41.295Z,0.10
2018-12-13T06:15:08.824Z,0.10
2018-12-13T06:17:36.340Z,0.00
2018-12-13T06:20:04.730Z,0.10
2018-12-13T06:22:32.446Z,0.10
2018-12-13T06:24:59.962Z,0.00
2018-12-13T06:27:27.480Z,0.10
2018-12-13T06:29:58.957Z,0.10
2018-12-13T06:32:24.608Z,0.10
2018-12-13T06:34:52.131Z,0.10
2018-12-13T06:37:19.681Z,0.10
2018-12-13T06:39:47.204Z,0.10
2018-12-13T06:42:14.715Z,0.10
2018-12-13T06:44:42.251Z,0.10
2018-12-13T06:47:09.769Z,0.10
2018-12-13T06:49:37.275Z,0.20
2018-12-13T06:52:04.799Z,0.10
2018-12-13T06:54:32.309Z,0.10
2018-12-13T06:57:00.632Z,0.20
2018-12-13T06:59:28.286Z,0.20
2018-12-13T07:01:55.806Z,0.10
2018-12-13T07:04:23.332Z,0.10
2018-12-13T07:06:50.861Z,0.10
2018-12-13T07:09:18.396Z,0.10
2018-12-13T07:11:45.909Z,0.10
2018-12-13T07:14:13.551Z,0.10
2018-12-13T07:16:41.073Z,0.10
2018-12-13T07:19:08.593Z,0.10
2018-12-13T07:21:36.115Z,0.10
2018-12-13T07:24:03.646Z,0.20
2018-12-13T07:26:31.236Z,0.20
2018-12-13T07:28:58.770Z,0.20
2018-12-13T07:31:26.307Z,0.20
2018-12-13T07:33:53.853Z,0.20
2018-12-13T07:36:21.385Z,0.20
2018-12-13T07:38:48.916Z,0.20
2018-12-13T07:41:16.448Z,0.10
2018-12-13T07:43:43.972Z,0.20
2018-12-13T07:46:11.493Z,0.20
2018-12-13T07:48:39.017Z,0.20
2018-12-13T07:51:06.542Z,0.20
2018-12-13T07:53:34.051Z,0.20
2018-12-13T07:56:01.588Z,0.20
2018-12-13T07:58:29.160Z,0.20
2018-12-13T08:00:56.683Z,0.20
2018-12-13T08:03:24.211Z,0.20
2018-12-13T08:05:51.754Z,0.30
2018-12-13T08:08:20.897Z,0.30
2018-12-13T08:10:48.823Z,0.30
2018-12-13T08:13:16.336Z,0.30
2018-12-13T08:15:43.864Z,0.30
2018-12-13T08:18:11.378Z,0.30
2018-12-13T08:20:38.904Z,0.40
2018-12-13T08:23:06.481Z,0.40
2018-12-13T08:25:34.003Z,0.50
2018-12-13T08:28:02.035Z,0.40
2018-12-13T08:30:29.663Z,0.50
2018-12-13T08:32:57.176Z,0.50
2018-12-13T08:35:24.797Z,0.50
2018-12-13T08:37:52.329Z,0.50
2018-12-13T08:40:19.859Z,0.60
2018-12-13T08:42:47.371Z,0.60
2018-12-13T08:45:14.901Z,0.70
2018-12-13T08:47:42.424Z,0.70
2018-12-13T08:50:09.944Z,0.70
2018-12-13T08:52:37.463Z,0.80
2018-12-13T08:55:04.995Z,0.80
2018-12-13T08:57:32.521Z,0.80
2018-12-13T09:00:00.036Z,0.80
2018-12-13T09:02:27.566Z,0.80
2018-12-13T09:04:55.094Z,0.90
2018-12-13T09:07:22.616Z,1.00
2018-12-13T09:09:50.138Z,0.90
2018-12-13T09:12:17.684Z,1.00
2018-12-13T09:14:45.220Z,1.00
2018-12-13T09:17:12.750Z,1.00
2018-12-13T09:19:40.273Z,1.00
2018-12-13T09:22:07.790Z,1.10
2018-12-13T09:24:35.378Z,1.10
2018-12-13T09:27:02.890Z,1.10
2018-12-13T09:29:30.405Z,1.10
2018-12-13T09:31:57.957Z,1.20
2018-12-13T09:34:25.477Z,1.20
2018-12-13T09:36:52.999Z,1.20
2018-12-13T09:39:20.514Z,1.20
2018-12-13T09:41:48.047Z,1.20
2018-12-13T09:44:16.918Z,1.20
2018-12-13T09:46:44.444Z,1.30
2018-12-13T09:49:11.971Z,1.30
2018-12-13T09:51:39.475Z,1.40
2018-12-13T09:54:06.979Z,1.40
2018-12-13T09:56:34.599Z,1.40
2018-12-13T09:59:02.123Z,1.40
2018-12-13T10:01:29.631Z,1.50
2018-12-13T10:03:57.143Z,1.50
2018-12-13T10:06:24.661Z,1.50
2018-12-13T10:08:52.165Z,1.50
2018-12-13T10:11:19.695Z,1.60
2018-12-13T10:13:47.226Z,1.60
2018-12-13T10:16:14.862Z,1.70
2018-12-13T10:18:42.386Z,1.70
2018-12-13T10:21:09.890Z,1.70
2018-12-13T10:23:37.403Z,1.80
2018-12-13T10:26:04.926Z,1.80
2018-12-13T10:28:32.525Z,1.80
2018-12-13T10:31:00.053Z,1.80
2018-12-13T10:33:27.609Z,1.90
2018-12-13T10:35:55.135Z,1.90
2018-12-13T10:38:22.639Z,1.90
2018-12-13T10:40:50.229Z,2.00
2018-12-13T10:43:17.748Z,2.00
2018-12-13T10:45:45.280Z,2.00
2018-12-13T10:48:12.793Z,2.10
2018-12-13T10:50:40.301Z,2.10
2018-12-13T10:53:07.817Z,2.10
2018-12-13T10:55:35.337Z,2.10
2018-12-13T10:58:02.851Z,2.20
2018-12-13T11:00:35.956Z,2.20
2018-12-13T11:03:20.257Z,2.30
2018-12-13T11:05:47.763Z,2.30
2018-12-13T11:08:15.269Z,2.30
2018-12-13T11:10:42.813Z,2.40
2018-12-13T11:13:10.325Z,2.50
2018-12-13T11:15:37.855Z,2.40
2018-12-13T11:18:05.363Z,2.50
2018-12-13T11:20:32.904Z,2.50
2018-12-13T11:23:00.413Z,2.60
2018-12-13T11:25:28.007Z,2.60
2018-12-13T11:30:54.382Z,2.70
2018-12-13T11:33:21.901Z,2.70
2018-12-13T11:35:49.404Z,2.80
2018-12-13T11:38:16.930Z,2.80
2018-12-13T11:40:44.450Z,2.80
2018-12-13T11:43:11.964Z,2.90
2018-12-13T11:45:39.479Z,2.90
2018-12-13T11:48:06.990Z,2.90
2018-12-13T11:50:34.768Z,3.00
2018-12-13T11:53:02.276Z,3.00
2018-12-13T11:55:31.975Z,3.10
2018-12-13T11:57:59.656Z,3.10
2018-12-13T12:00:27.240Z,3.10
2018-12-13T12:02:55.637Z,3.10
2018-12-13T12:05:23.221Z,3.20
2018-12-13T12:07:50.753Z,3.20
2018-12-13T12:10:18.265Z,3.30
2018-12-13T12:12:45.788Z,3.30
2018-12-13T12:15:13.331Z,3.30
2018-12-13T12:17:40.863Z,3.40
2018-12-13T12:20:08.393Z,3.40
2018-12-13T12:22:35.910Z,3.40
2018-12-13T12:25:04.492Z,3.40
2018-12-13T12:27:32.000Z,3.40
2018-12-13T12:29:59.513Z,3.40
2018-12-13T12:32:27.037Z,3.50
2018-12-13T12:34:54.580Z,3.50
2018-12-13T12:37:22.088Z,3.50
2018-12-13T12:39:49.618Z,3.60
2018-12-13T12:42:17.130Z,3.60
2018-12-13T12:44:44.642Z,3.60
2018-12-13T12:47:12.176Z,3.60
2018-12-13T12:49:39.695Z,3.60
2018-12-13T12:52:07.319Z,3.60
2018-12-13T12:54:34.832Z,3.60
2018-12-13T12:57:02.366Z,3.60
2018-12-13T12:59:29.883Z,3.60
2018-12-13T13:01:57.380Z,3.60
2018-12-13T13:04:24.896Z,3.60
2018-12-13T13:06:52.407Z,3.60
2018-12-13T13:09:25.022Z,3.60
2018-12-13T13:11:49.479Z,3.70
2018-12-13T13:14:16.982Z,3.70
2018-12-13T13:16:44.497Z,3.70
2018-12-13T13:19:12.013Z,3.70
2018-12-13T13:21:39.541Z,3.70
2018-12-13T13:24:07.057Z,3.70
2018-12-13T13:26:34.577Z,3.70
2018-12-13T13:29:02.090Z,3.70
2018-12-13T13:31:29.613Z,3.70
2018-12-13T13:33:57.147Z,3.70
2018-12-13T13:36:24.688Z,3.70
2018-12-13T13:38:52.213Z,3.80
2018-12-13T13:41:19.756Z,3.80
2018-12-13T13:43:47.285Z,3.80
2018-12-13T13:46:14.785Z,3.80
2018-12-13T13:48:42.295Z,3.80
2018-12-13T13:51:09.806Z,3.80
2018-12-13T13:53:37.321Z,3.80
2018-12-13T13:56:04.901Z,3.80
2018-12-13T13:58:32.415Z,3.80
2018-12-13T14:00:59.946Z,3.80
2018-12-13T14:03:27.469Z,3.80
2018-12-13T14:05:54.982Z,3.80
2018-12-13T14:08:22.506Z,3.80
2018-12-13T14:10:50.063Z,3.80
2018-12-13T14:13:18.078Z,3.70
2018-12-13T14:15:45.606Z,3.70
2018-12-13T14:18:13.225Z,3.70
2018-12-13T14:20:41.203Z,3.70
2018-12-13T14:23:08.791Z,3.70
2018-12-13T14:25:36.311Z,3.70
2018-12-13T14:28:04.073Z,3.70
2018-12-13T14:30:31.619Z,3.60
2018-12-13T14:32:59.133Z,3.60
2018-12-13T14:35:26.642Z,3.60
2018-12-13T14:37:54.168Z,3.60
2018-12-13T14:40:21.701Z,3.50
2018-12-13T14:42:49.221Z,3.50
2018-12-13T14:45:16.743Z,3.50
2018-12-13T14:54:27.906Z,3.50
2018-12-13T14:56:55.426Z,3.50
2018-12-13T14:59:22.945Z,3.40
2018-12-13T15:01:50.466Z,3.40
2018-12-13T15:04:17.976Z,3.40
2018-12-13T15:06:45.506Z,3.30
2018-12-13T15:09:13.018Z,3.30
2018-12-13T15:11:40.541Z,3.30
2018-12-13T15:14:08.105Z,3.40
2018-12-13T15:16:35.621Z,3.60
2018-12-13T15:19:03.138Z,3.70
2018-12-13T15:21:30.671Z,3.80
2018-12-13T15:23:58.194Z,3.90
2018-12-13T15:26:25.809Z,3.90
2018-12-13T15:28:53.331Z,3.70
2018-12-13T15:31:20.853Z,3.40
2018-12-13T15:33:48.408Z,3.20
2018-12-13T15:36:15.928Z,3.00
2018-12-13T15:38:43.584Z,2.90
2018-12-13T15:41:11.099Z,2.80
2018-12-13T15:43:38.821Z,2.70
2018-12-13T15:46:06.332Z,2.60
2018-12-13T15:48:33.954Z,2.60
2018-12-13T15:51:01.470Z,2.50
2018-12-13T15:53:28.985Z,2.50
2018-12-13T15:55:56.501Z,2.40
2018-12-13T15:58:26.319Z,2.40
2018-12-13T16:00:54.027Z,2.30
2018-12-13T16:03:21.563Z,2.30
2018-12-13T16:05:49.101Z,2.30
2018-12-13T16:08:16.631Z,2.30
2018-12-13T16:10:44.155Z,2.20
2018-12-13T16:13:11.669Z,2.20
2018-12-13T16:15:39.187Z,2.10
2018-12-13T16:18:06.697Z,2.10
2018-12-13T16:20:34.208Z,2.10
2018-12-13T16:23:01.718Z,2.10
2018-12-13T16:25:29.229Z,2.00
2018-12-13T16:27:56.744Z,2.00
2018-12-13T16:30:24.650Z,2.00
2018-12-13T16:32:52.167Z,1.90
2018-12-13T16:35:19.679Z,1.80
2018-12-13T16:37:47.209Z,1.70
2018-12-13T16:40:14.735Z,1.70
2018-12-13T16:42:42.250Z,1.70
2018-12-13T16:45:09.778Z,1.60
2018-12-13T16:47:37.302Z,1.60
2018-12-13T16:50:05.993Z,1.60
2018-12-13T16:52:33.566Z,1.60
2018-12-13T16:55:01.088Z,0.30
2018-12-13T16:57:28.607Z,1.60
2018-12-13T16:59:56.119Z,1.60
2018-12-13T17:02:23.639Z,1.50
2018-12-13T17:04:51.263Z,1.50
2018-12-13T17:07:18.792Z,1.50
2018-12-13T17:09:46.318Z,1.50
2018-12-13T17:12:13.885Z,1.50
2018-12-13T17:14:41.407Z,1.50
2018-12-13T17:17:08.918Z,1.40
2018-12-13T17:19:36.444Z,1.40
2018-12-13T17:22:03.953Z,1.40
2018-12-13T17:24:31.473Z,1.40
2018-12-13T17:26:58.993Z,1.40
2018-12-13T17:29:26.507Z,1.40
2018-12-13T17:31:54.037Z,1.40
2018-12-13T17:34:21.549Z,1.30
2018-12-13T17:36:49.075Z,1.30
2018-12-13T17:39:16.609Z,1.30
2018-12-13T17:41:44.145Z,1.30
2018-12-13T17:44:11.665Z,1.30
2018-12-13T17:46:39.207Z,1.20
2018-12-13T17:49:06.727Z,1.20
2018-12-13T17:51:34.293Z,1.20
2018-12-13T17:54:01.819Z,1.10
2018-12-13T17:56:29.349Z,1.10
2018-12-13T17:58:56.871Z,1.10
2018-12-13T18:01:24.382Z,1.00
2018-12-13T18:03:51.908Z,1.10
2018-12-13T18:06:19.479Z,1.00
2018-12-13T18:08:47.013Z,1.10
2018-12-13T18:11:14.519Z,1.00
2018-12-13T18:13:42.053Z,1.00
2018-12-13T18:16:09.567Z,1.00
2018-12-13T18:18:37.084Z,1.10
2018-12-13T18:21:04.881Z,1.00
2018-12-13T18:23:32.410Z,1.00
2018-12-13T18:25:59.914Z,1.00
2018-12-13T18:28:27.443Z,1.00
2018-12-13T18:30:54.978Z,1.00
2018-12-13T18:33:22.490Z,1.00
2018-12-13T18:35:50.023Z,0.90
2018-12-13T18:38:17.572Z,0.90
2018-12-13T18:40:45.178Z,0.90
2018-12-13T18:43:12.739Z,0.80
2018-12-13T18:45:40.266Z,0.90
2018-12-13T18:48:07.779Z,0.90
2018-12-13T18:50:35.426Z,0.90
2018-12-13T18:53:02.942Z,0.90
2018-12-13T18:55:30.455Z,0.90
2018-12-13T18:57:57.978Z,0.80
2018-12-13T19:00:25.528Z,0.80
2018-12-13T19:02:53.066Z,0.80
2018-12-13T19:05:21.158Z,0.70
2018-12-13T19:07:48.694Z,0.70
2018-12-13T19:10:16.234Z,0.70
2018-12-13T19:12:43.772Z,0.70
2018-12-13T19:15:11.311Z,0.70
2018-12-13T19:17:38.841Z,0.70
2018-12-13T19:20:06.528Z,0.70
2018-12-13T19:22:34.083Z,0.70
2018-12-13T19:25:01.740Z,0.70
2018-12-13T19:27:29.254Z,0.60
2018-12-13T19:29:56.780Z,0.60
2018-12-13T19:32:24.337Z,0.60
2018-12-13T19:34:51.867Z,0.60
2018-12-13T19:37:19.436Z,0.60
2018-12-13T19:39:47.015Z,0.50
2018-12-13T19:42:14.569Z,0.50
2018-12-13T19:44:42.135Z,0.50
2018-12-13T19:47:09.675Z,0.50
2018-12-13T19:49:37.203Z,0.50
2018-12-13T19:52:05.097Z,0.50
2018-12-13T19:54:32.615Z,0.50
2018-12-13T19:57:00.506Z,0.50
2018-12-13T19:59:28.061Z,0.40
2018-12-13T20:01:55.623Z,0.40
2018-12-13T20:04:23.150Z,0.40
2018-12-13T20:06:50.687Z,0.50
2018-12-13T20:09:18.515Z,0.40
2018-12-13T20:11:46.033Z,0.40
2018-12-13T20:14:13.545Z,0.40
2018-12-13T20:16:41.325Z,0.40
2018-12-13T20:19:08.858Z,0.40
2018-12-13T20:21:36.389Z,0.40
2018-12-13T20:24:03.915Z,0.40
2018-12-13T20:26:31.770Z,0.40
2018-12-13T20:28:59.308Z,0.40
2018-12-13T20:31:26.825Z,0.40
2018-12-13T20:33:54.350Z,0.30
2018-12-13T20:36:22.013Z,0.30
2018-12-13T20:38:49.532Z,0.30
2018-12-13T20:41:17.138Z,0.30
2018-12-13T20:43:44.657Z,0.30
2018-12-13T20:46:12.285Z,0.20
2018-12-13T20:48:39.801Z,0.20
2018-12-13T20:51:07.375Z,0.20
2018-12-13T20:53:34.913Z,0.20
2018-12-13T20:56:02.516Z,0.20
2018-12-13T20:58:30.042Z,0.10
2018-12-13T21:00:57.558Z,0.10
2018-12-13T21:03:25.070Z,0.00
2018-12-13T21:05:52.590Z,0.00
2018-12-13T21:08:20.111Z,0.00
2018-12-13T21:10:47.651Z,0.00
2018-12-13T21:13:15.180Z,0.00
2018-12-13T21:15:42.738Z,0.00
2018-12-13T21:20:50.582Z,0.00
2018-12-13T21:23:18.135Z,0.00
2018-12-13T21:25:45.656Z,0.00
2018-12-13T21:28:13.170Z,0.00
2018-12-13T21:30:40.697Z,-0.10
2018-12-13T21:33:08.211Z,-0.10
2018-12-13T21:35:35.735Z,0.00
2018-12-13T21:38:03.243Z,-0.10
2018-12-13T21:40:30.774Z,-0.10
2018-12-13T21:42:58.297Z,-0.10
2018-12-13T21:45:25.815Z,-0.10
2018-12-13T21:47:53.731Z,-0.10
2018-12-13T21:50:21.506Z,-0.10
2018-12-13T21:52:49.013Z,-0.10
2018-12-13T21:55:16.632Z,-0.10
2018-12-13T21:57:44.181Z,-0.10
2018-12-13T22:00:11.698Z,-0.10
2018-12-13T22:02:39.219Z,-0.20
2018-12-13T22:05:06.742Z,-0.20
2018-12-13T22:07:34.293Z,-0.20
2018-12-13T22:10:01.817Z,-0.20
2018-12-13T22:12:29.346Z,-0.20
2018-12-13T22:15:02.364Z,-0.20
2018-12-13T22:17:26.413Z,-0.20
2018-12-13T22:19:53.950Z,-0.20
2018-12-13T22:22:21.490Z,-0.20
2018-12-13T22:24:49.015Z,-0.20
2018-12-13T22:27:16.558Z,-0.20
2018-12-13T22:29:44.124Z,-0.20
2018-12-13T22:32:11.714Z,-0.20
2018-12-13T22:34:39.412Z,-0.20
2018-12-13T22:37:07.311Z,-0.20
2018-12-13T22:39:34.838Z,-0.20
2018-12-13T22:42:02.373Z,-0.30
2018-12-13T22:44:29.926Z,-0.30
2018-12-13T22:46:57.641Z,-0.30
2018-12-13T22:49:25.159Z,-0.30
2018-12-13T22:51:52.687Z,-0.30
2018-12-13T22:54:20.216Z,-0.30
2018-12-13T22:56:47.750Z,-0.40
2018-12-13T22:59:15.270Z,-0.40
2018-12-13T23:01:42.793Z,-0.40
2018-12-13T23:04:10.325Z,-0.40
2018-12-13T23:06:37.849Z,-0.50
2018-12-13T23:09:06.129Z,-0.50
2018-12-13T23:11:34.963Z,-0.50
2018-12-13T23:14:02.538Z,-0.50
2018-12-13T23:16:30.061Z,-0.50
2018-12-13T23:18:57.585Z,-0.60
2018-12-13T23:21:25.305Z,-0.60
2018-12-13T23:23:52.974Z,-0.60
2018-12-13T23:26:20.593Z,-0.60
2018-12-13T23:28:48.131Z,-0.60
2018-12-13T23:31:15.650Z,-0.60
2018-12-13T23:33:43.173Z,-0.60
2018-12-13T23:36:10.687Z,-0.70
2018-12-13T23:38:38.209Z,-0.70
2018-12-13T23:41:05.744Z,-0.80
2018-12-13T23:43:33.271Z,-0.80
2018-12-13T23:46:00.799Z,-0.90
2018-12-13T23:48:28.345Z,-0.90
2018-12-13T23:50:55.874Z,-1.00
2018-12-13T23:53:23.767Z,-1.00
2018-12-13T23:55:51.286Z,-1.10
2018-12-13T23:58:18.837Z,-1.20
